Terminal Aerodrome Forecast
Issued by NWS Wilmington, OH

Current Version | Previous Version | Text Only | Print | Product List | Glossary Off
Versions: 1 2 3 4 5 6 7 8 9 10 11 12 13 14 15 16

000
FTUS41 KILN 011100
TAFDAY
TAF
KDAY 011138Z 0112/0212 00000KT P6SM SCT100
     FM011400 07003KT P6SM FEW030 SCT100
     FM011700 03005KT P6SM BKN060
     FM020000 06004KT P6SM BKN060
     FM020700 10003KT P6SM VCTS BKN060CB=

USA.gov is the U.S. government's official web portal to all federal, state and local government web resources and services.